createdAt,value
2018-01-18T00:00:48.992Z,961.2
2018-01-18T00:01:58.964Z,961.18
2018-01-18T00:03:08.946Z,961.19
2018-01-18T00:04:18.927Z,961.21
2018-01-18T00:05:28.903Z,961.2
2018-01-18T00:06:38.888Z,961.22
2018-01-18T00:07:48.862Z,961.24
2018-01-18T00:08:58.842Z,961.25
2018-01-18T00:10:08.284Z,961.22
2018-01-18T00:11:18.261Z,961.23
2018-01-18T00:12:28.240Z,961.22
2018-01-18T00:13:38.217Z,961.23
2018-01-18T00:14:48.198Z,961.2
2018-01-18T00:15:58.175Z,961.24
2018-01-18T00:17:08.148Z,961.22
2018-01-18T00:18:17.863Z,961.2
2018-01-18T00:19:27.572Z,961.21
2018-01-18T00:20:37.015Z,961.26
2018-01-18T00:21:46.722Z,961.26
2018-01-18T00:22:56.436Z,961.22
2018-01-18T00:24:06.409Z,961.27
2018-01-18T00:25:16.381Z,961.23
2018-01-18T00:26:26.094Z,961.23
2018-01-18T00:27:35.801Z,961.28
2018-01-18T00:28:45.771Z,961.28
2018-01-18T00:29:55.750Z,961.26
2018-01-18T00:31:05.458Z,961.25
2018-01-18T00:32:14.902Z,961.24
2018-01-18T00:33:24.875Z,961.23
2018-01-18T00:34:34.858Z,961.28
2018-01-18T00:35:44.836Z,961.22
2018-01-18T00:36:54.810Z,961.24
2018-01-18T00:38:04.783Z,961.26
2018-01-18T00:39:14.759Z,961.26
2018-01-18T00:40:24.473Z,961.3
2018-01-18T00:41:34.448Z,961.29
2018-01-18T00:42:44.164Z,961.32
2018-01-18T00:43:53.871Z,961.3
2018-01-18T00:45:03.844Z,961.32
2018-01-18T00:46:13.816Z,961.3
2018-01-18T00:47:23.262Z,961.36
2018-01-18T00:48:33.236Z,961.39
2018-01-18T00:49:42.962Z,961.36
2018-01-18T00:50:52.935Z,961.36
2018-01-18T00:52:02.913Z,961.47
2018-01-18T00:53:12.622Z,961.43
2018-01-18T00:54:22.653Z,961.43
2018-01-18T00:55:32.632Z,961.45
2018-01-18T00:56:42.342Z,961.47
2018-01-18T00:57:52.054Z,961.46
2018-01-18T00:59:01.764Z,961.45
2018-01-18T01:00:11.786Z,961.5
2018-01-18T01:01:21.763Z,961.46
2018-01-18T01:02:31.472Z,961.47
2018-01-18T01:03:40.915Z,961.52
2018-01-18T01:04:50.891Z,961.5
2018-01-18T01:06:00.601Z,961.46
2018-01-18T01:07:09.779Z,961.48
2018-01-18T01:08:19.755Z,961.47
2018-01-18T01:09:29.458Z,961.48
2018-01-18T01:10:39.430Z,961.41
2018-01-18T01:11:48.875Z,961.46
2018-01-18T01:12:58.863Z,961.44
2018-01-18T01:14:08.572Z,961.46
2018-01-18T01:15:18.549Z,961.46
2018-01-18T01:16:28.255Z,961.46
2018-01-18T01:17:38.066Z,961.49
2018-01-18T01:18:48.039Z,961.46
2018-01-18T01:19:58.013Z,961.47
2018-01-18T01:21:07.457Z,961.46
2018-01-18T01:22:17.164Z,961.47
2018-01-18T01:23:27.147Z,961.42
2018-01-18T01:24:37.120Z,961.41
2018-01-18T01:25:47.095Z,961.38
2018-01-18T01:26:56.803Z,961.41
2018-01-18T01:28:06.773Z,961.43
2018-01-18T01:29:16.750Z,961.43
2018-01-18T01:30:26.731Z,961.41
2018-01-18T01:31:36.710Z,961.47
2018-01-18T01:32:46.685Z,961.48
2018-01-18T01:33:56.139Z,961.43
2018-01-18T01:35:05.842Z,961.46
2018-01-18T01:36:15.820Z,961.43
2018-01-18T01:37:25.793Z,961.46
2018-01-18T01:38:35.506Z,961.46
2018-01-18T01:39:45.484Z,961.39
2018-01-18T01:40:55.466Z,961.39
2018-01-18T01:42:05.176Z,961.46
2018-01-18T01:43:15.149Z,961.42
2018-01-18T01:44:24.871Z,961.43
2018-01-18T01:45:34.571Z,961.44
2018-01-18T01:46:44.546Z,961.38
2018-01-18T01:47:54.519Z,961.4
2018-01-18T01:49:04.496Z,961.4
2018-01-18T01:50:14.217Z,961.33
2018-01-18T01:51:23.926Z,961.38
2018-01-18T01:52:33.645Z,961.39
2018-01-18T01:53:43.620Z,961.41
2018-01-18T01:54:53.594Z,961.42
2018-01-18T01:56:03.312Z,961.42
2018-01-18T01:57:13.030Z,961.43
2018-01-18T01:58:23.074Z,961.43
2018-01-18T01:59:33.044Z,961.41
2018-01-18T02:00:42.753Z,961.39
2018-01-18T02:01:52.464Z,961.41
2018-01-18T02:03:02.176Z,961.42
2018-01-18T02:04:12.157Z,961.39
2018-01-18T02:05:22.126Z,961.46
2018-01-18T02:06:32.099Z,961.43
2018-01-18T02:07:42.076Z,961.44
2018-01-18T02:08:51.793Z,961.44
2018-01-18T02:10:01.548Z,961.43
2018-01-18T02:11:11.521Z,961.45
2018-01-18T02:12:21.226Z,961.47
2018-01-18T02:13:31.197Z,961.44
2018-01-18T02:14:41.169Z,961.47
2018-01-18T02:15:50.878Z,961.41
2018-01-18T02:17:00.855Z,961.44
2018-01-18T02:18:10.825Z,961.45
2018-01-18T02:19:20.533Z,961.5
2018-01-18T02:20:30.241Z,961.45
2018-01-18T02:21:39.950Z,961.41
2018-01-18T02:22:49.667Z,961.46
2018-01-18T02:23:59.647Z,961.46
2018-01-18T02:25:09.621Z,961.49
2018-01-18T02:26:19.596Z,961.48
2018-01-18T02:27:29.309Z,961.48
2018-01-18T02:28:39.280Z,961.47
2018-01-18T02:29:49.250Z,961.5
2018-01-18T02:30:58.962Z,961.46
2018-01-18T02:32:08.416Z,961.53
2018-01-18T02:33:18.398Z,961.5
2018-01-18T02:34:28.369Z,961.49
2018-01-18T02:35:38.341Z,961.49
2018-01-18T02:36:48.325Z,961.49
2018-01-18T02:37:58.031Z,961.47
2018-01-18T02:39:08.004Z,961.45
2018-01-18T02:40:18.060Z,961.47
2018-01-18T02:41:28.042Z,961.45
2018-01-18T02:42:37.754Z,961.48
2018-01-18T02:43:47.465Z,961.45
2018-01-18T02:44:57.435Z,961.43
2018-01-18T02:46:07.406Z,961.43
2018-01-18T02:47:17.395Z,961.42
2018-01-18T02:48:27.105Z,961.43
2018-01-18T02:49:36.815Z,961.45
2018-01-18T02:50:46.837Z,961.42
2018-01-18T02:51:56.552Z,961.4
2018-01-18T02:53:06.306Z,961.42
2018-01-18T02:54:16.283Z,961.44
2018-01-18T02:55:26.266Z,961.4
2018-01-18T02:56:36.341Z,961.4
2018-01-18T02:57:46.058Z,961.35
2018-01-18T02:58:55.765Z,961.39
2018-01-18T03:00:05.738Z,961.42
2018-01-18T03:01:15.452Z,961.38
2018-01-18T03:02:25.424Z,961.4
2018-01-18T03:03:35.129Z,961.41
2018-01-18T03:04:44.839Z,961.4
2018-01-18T03:05:54.811Z,961.38
2018-01-18T03:07:04.781Z,961.4
2018-01-18T03:08:14.909Z,961.46
2018-01-18T03:09:24.885Z,961.5
2018-01-18T03:10:34.600Z,961.52
2018-01-18T03:11:44.305Z,961.54
2018-01-18T03:12:53.748Z,961.58
2018-01-18T03:14:03.459Z,961.55
2018-01-18T03:15:13.434Z,961.57
2018-01-18T03:16:23.408Z,961.53
2018-01-18T03:17:33.116Z,961.55
2018-01-18T03:18:42.827Z,961.61
2018-01-18T03:19:52.947Z,961.58
2018-01-18T03:21:02.655Z,961.62
2018-01-18T03:22:12.365Z,961.57
2018-01-18T03:23:22.337Z,961.56
2018-01-18T03:24:32.310Z,961.61
2018-01-18T03:25:42.339Z,961.58
2018-01-18T03:26:51.780Z,961.55
2018-01-18T03:28:01.264Z,961.57
2018-01-18T03:29:11.240Z,961.6
2018-01-18T03:30:21.215Z,961.53
2018-01-18T03:31:30.940Z,961.56
2018-01-18T03:32:40.931Z,961.56
2018-01-18T03:33:50.921Z,961.53
2018-01-18T03:35:00.901Z,961.5
2018-01-18T03:36:10.876Z,961.51
2018-01-18T03:37:20.856Z,961.45
2018-01-18T03:38:30.566Z,961.5
2018-01-18T03:39:40.541Z,961.5
2018-01-18T03:40:50.254Z,961.51
2018-01-18T03:41:59.968Z,961.56
2018-01-18T03:43:09.670Z,961.51
2018-01-18T03:44:19.376Z,961.56
2018-01-18T03:45:29.085Z,961.49
2018-01-18T03:46:38.794Z,961.54
2018-01-18T03:47:48.502Z,961.53
2018-01-18T03:48:57.945Z,961.55
2018-01-18T03:50:07.664Z,961.54
2018-01-18T03:51:17.376Z,961.55
2018-01-18T03:52:26.824Z,961.54
2018-01-18T03:53:36.798Z,961.6
2018-01-18T03:54:46.777Z,961.6
2018-01-18T03:55:56.754Z,961.61
2018-01-18T03:57:06.726Z,961.63
2018-01-18T03:58:16.701Z,961.62
2018-01-18T03:59:26.680Z,961.63
2018-01-18T04:00:36.389Z,961.61
2018-01-18T04:04:18.669Z,961.64
2018-01-18T04:05:28.380Z,961.61
2018-01-18T04:06:38.357Z,961.61
2018-01-18T04:07:48.330Z,961.67
2018-01-18T04:08:58.300Z,961.67
2018-01-18T04:10:08.008Z,961.64
2018-01-18T04:11:17.719Z,961.66
2018-01-18T04:12:27.691Z,961.66
2018-01-18T04:13:37.664Z,961.67
2018-01-18T04:14:47.637Z,961.62
2018-01-18T04:15:57.085Z,961.67
2018-01-18T04:17:06.526Z,961.63
2018-01-18T04:18:16.500Z,961.6
2018-01-18T04:19:26.477Z,961.67
2018-01-18T04:20:36.457Z,961.62
2018-01-18T04:21:46.437Z,961.59
2018-01-18T04:22:56.405Z,961.57
2018-01-18T04:24:05.850Z,961.55
2018-01-18T04:25:15.827Z,961.59
2018-01-18T04:26:25.535Z,961.58
2018-01-18T04:27:35.513Z,961.6
2018-01-18T04:28:45.218Z,961.56
2018-01-18T04:29:54.926Z,961.55
2018-01-18T04:31:04.898Z,961.54
2018-01-18T04:32:14.346Z,961.55
2018-01-18T04:33:24.319Z,961.53
2018-01-18T04:34:34.078Z,961.52
2018-01-18T04:35:44.050Z,961.52
2018-01-18T04:36:53.757Z,961.5
2018-01-18T04:38:03.466Z,961.54
2018-01-18T04:39:12.909Z,961.56
2018-01-18T04:40:22.886Z,961.57
2018-01-18T04:41:32.638Z,961.6
2018-01-18T04:42:42.609Z,961.61
2018-01-18T04:43:52.587Z,961.6
2018-01-18T04:45:02.558Z,961.6
2018-01-18T04:46:12.266Z,961.59
2018-01-18T04:47:22.238Z,961.59
2018-01-18T04:48:31.683Z,961.64
2018-01-18T04:49:41.659Z,961.63
2018-01-18T04:50:51.107Z,961.59
2018-01-18T04:52:00.921Z,961.62
2018-01-18T04:53:10.895Z,961.62
2018-01-18T04:54:20.605Z,961.64
2018-01-18T04:55:30.311Z,961.59
2018-01-18T04:56:39.758Z,961.63
2018-01-18T04:57:49.735Z,961.6
2018-01-18T04:58:59.711Z,961.58
2018-01-18T05:00:09.685Z,961.64
2018-01-18T05:01:19.397Z,961.58
2018-01-18T05:02:29.365Z,961.64
2018-01-18T05:03:39.340Z,961.62
2018-01-18T05:04:49.314Z,961.58
2018-01-18T05:05:59.397Z,961.6
2018-01-18T05:07:09.104Z,961.59
2018-01-18T05:08:18.811Z,961.59
2018-01-18T05:09:28.517Z,961.6
2018-01-18T05:10:38.248Z,961.63
2018-01-18T05:11:48.219Z,961.61
2018-01-18T05:12:57.978Z,961.65
2018-01-18T05:14:08.006Z,961.6
2018-01-18T05:15:17.713Z,961.56
2018-01-18T05:16:27.683Z,961.53
2018-01-18T05:17:37.654Z,961.52
2018-01-18T05:18:47.633Z,961.5
2018-01-18T05:19:57.605Z,961.47
2018-01-18T05:21:07.323Z,961.46
2018-01-18T05:22:17.294Z,961.45
2018-01-18T05:23:27.002Z,961.46
2018-01-18T05:24:37.044Z,961.45
2018-01-18T05:25:46.755Z,961.45
2018-01-18T05:26:56.466Z,961.44
2018-01-18T05:28:05.645Z,961.44
2018-01-18T05:29:15.355Z,961.5
2018-01-18T05:30:25.328Z,961.48
2018-01-18T05:31:35.351Z,961.47
2018-01-18T05:32:45.327Z,961.51
2018-01-18T05:33:55.038Z,961.51
2018-01-18T05:35:04.743Z,961.53
2018-01-18T05:36:14.715Z,961.53
2018-01-18T05:37:24.690Z,961.54
2018-01-18T05:38:34.443Z,961.5
2018-01-18T05:39:44.199Z,961.54
2018-01-18T05:40:54.177Z,961.51
2018-01-18T05:42:04.150Z,961.56
2018-01-18T05:43:13.594Z,961.54
2018-01-18T05:44:23.673Z,961.55
2018-01-18T05:45:33.647Z,961.55
2018-01-18T05:46:43.623Z,961.55
2018-01-18T05:47:53.601Z,961.56
2018-01-18T05:49:03.578Z,961.63
2018-01-18T05:50:13.550Z,961.58
2018-01-18T05:51:23.260Z,961.6
2018-01-18T05:52:33.235Z,961.63
2018-01-18T05:53:43.219Z,961.65
2018-01-18T05:54:53.190Z,961.7
2018-01-18T05:56:02.901Z,961.68
2018-01-18T05:57:13.003Z,961.67
2018-01-18T05:58:22.977Z,961.65
2018-01-18T05:59:32.682Z,961.68
2018-01-18T06:00:42.411Z,961.71
2018-01-18T06:01:52.175Z,961.7
2018-01-18T06:03:01.884Z,961.7
2018-01-18T06:04:11.076Z,961.71
2018-01-18T06:05:20.518Z,961.7
2018-01-18T06:06:30.232Z,961.74
2018-01-18T06:07:39.688Z,961.75
2018-01-18T06:08:49.185Z,961.73
2018-01-18T06:09:59.157Z,961.77
2018-01-18T06:11:08.600Z,961.78
2018-01-18T06:12:18.571Z,961.8
2018-01-18T06:13:28.681Z,961.79
2018-01-18T06:14:38.965Z,961.78
2018-01-18T06:15:48.947Z,961.74
2018-01-18T06:16:58.917Z,961.78
2018-01-18T06:18:08.759Z,961.78
2018-01-18T06:19:18.374Z,961.78
2018-01-18T06:20:28.373Z,961.75
2018-01-18T06:21:38.097Z,961.8
2018-01-18T06:22:47.814Z,961.77
2018-01-18T06:23:57.837Z,961.76
2018-01-18T06:25:07.556Z,961.79
2018-01-18T06:26:17.529Z,961.77
2018-01-18T06:27:27.239Z,961.77
2018-01-18T06:28:37.213Z,961.8
2018-01-18T06:29:47.188Z,961.8
2018-01-18T06:30:56.897Z,961.82
2018-01-18T06:32:06.881Z,961.79
2018-01-18T06:33:16.855Z,961.83
2018-01-18T06:34:26.567Z,961.83
2018-01-18T06:35:36.539Z,961.86
2018-01-18T06:36:46.510Z,961.86
2018-01-18T06:37:56.220Z,961.83
2018-01-18T06:39:06.200Z,961.87
2018-01-18T06:40:16.179Z,961.9
2018-01-18T06:41:26.153Z,961.83
2018-01-18T06:42:35.600Z,961.78
2018-01-18T06:43:45.580Z,961.79
2018-01-18T06:44:54.766Z,961.81
2018-01-18T06:46:04.749Z,961.84
2018-01-18T06:47:14.721Z,961.82
2018-01-18T06:48:24.696Z,961.85
2018-01-18T06:49:34.404Z,961.84
2018-01-18T06:50:44.382Z,961.85
2018-01-18T06:51:54.364Z,961.91
2018-01-18T06:53:04.340Z,961.88
2018-01-18T06:54:14.357Z,961.91
2018-01-18T06:55:24.348Z,961.9
2018-01-18T06:56:33.793Z,961.91
2018-01-18T06:57:43.766Z,961.91
2018-01-18T06:58:53.744Z,961.9
2018-01-18T07:00:03.823Z,961.87
2018-01-18T07:01:13.533Z,961.91
2018-01-18T07:02:23.505Z,961.89
2018-01-18T07:03:33.484Z,961.88
2018-01-18T07:04:43.464Z,961.92
2018-01-18T07:05:53.173Z,961.95
2018-01-18T07:07:03.220Z,961.98
2018-01-18T07:08:13.191Z,962.03
2018-01-18T07:09:23.167Z,962.06
2018-01-18T07:10:33.141Z,962.1
2018-01-18T07:11:42.955Z,962.11
2018-01-18T07:12:52.664Z,962.18
2018-01-18T07:14:02.641Z,962.18
2018-01-18T07:15:12.349Z,962.19
2018-01-18T07:16:22.331Z,962.18
2018-01-18T07:17:32.308Z,962.19
2018-01-18T07:18:42.023Z,962.19
2018-01-18T07:19:52.066Z,962.17
2018-01-18T07:21:02.041Z,962.16
2018-01-18T07:22:12.024Z,962.13
2018-01-18T07:23:21.996Z,962.09
2018-01-18T07:24:31.714Z,962.07
2018-01-18T07:25:41.158Z,962.05
2018-01-18T07:26:50.603Z,962.03
2018-01-18T07:28:00.055Z,962.05
2018-01-18T07:29:09.765Z,962.09
2018-01-18T07:30:19.474Z,962.09
2018-01-18T07:31:29.448Z,962.13
2018-01-18T07:32:39.438Z,962.16
2018-01-18T07:33:49.150Z,962.1
2018-01-18T07:34:58.890Z,962.16
2018-01-18T07:36:08.929Z,962.14
2018-01-18T07:37:18.901Z,962.08
2018-01-18T07:38:28.876Z,962.1
2018-01-18T07:39:38.849Z,962.11
2018-01-18T07:40:48.349Z,962.07
2018-01-18T07:41:58.060Z,962.12
2018-01-18T07:43:08.035Z,962.07
2018-01-18T07:44:18.013Z,962.15
2018-01-18T07:45:27.990Z,962.14
2018-01-18T07:46:37.966Z,962.16
2018-01-18T07:47:47.963Z,962.23
2018-01-18T07:48:57.681Z,962.23
2018-01-18T07:50:07.654Z,962.23
2018-01-18T07:51:17.364Z,962.24
2018-01-18T07:52:27.072Z,962.23
2018-01-18T07:53:37.044Z,962.23
2018-01-18T07:54:46.755Z,962.19
2018-01-18T07:55:56.724Z,962.18
2018-01-18T07:57:06.442Z,962.19
2018-01-18T07:58:16.473Z,962.23
2018-01-18T07:59:26.441Z,962.25
2018-01-18T08:00:36.223Z,962.22
2018-01-18T08:01:45.946Z,962.26
2018-01-18T08:02:55.929Z,962.25
2018-01-18T08:04:05.960Z,962.25
2018-01-18T08:05:15.943Z,962.3
2018-01-18T08:06:25.655Z,962.32
2018-01-18T08:07:35.360Z,962.35
2018-01-18T08:08:44.811Z,962.37
2018-01-18T08:09:54.257Z,962.33
2018-01-18T08:11:04.232Z,962.35
2018-01-18T08:12:13.942Z,962.37
2018-01-18T08:13:23.655Z,962.29
2018-01-18T08:14:33.633Z,962.3
2018-01-18T08:15:43.077Z,962.31
2018-01-18T08:16:53.228Z,962.3
2018-01-18T08:18:02.673Z,962.33
2018-01-18T08:19:12.432Z,962.32
2018-01-18T08:20:22.411Z,962.3
2018-01-18T08:21:32.495Z,962.28
2018-01-18T08:22:42.207Z,962.3
2018-01-18T08:23:52.182Z,962.31
2018-01-18T08:25:01.899Z,962.33
2018-01-18T08:26:11.876Z,962.31
2018-01-18T08:27:21.845Z,962.33
2018-01-18T08:28:31.818Z,962.32
2018-01-18T08:29:41.527Z,962.33
2018-01-18T08:30:51.509Z,962.39
2018-01-18T08:32:00.693Z,962.39
2018-01-18T08:33:10.451Z,962.38
2018-01-18T08:34:20.490Z,962.35
2018-01-18T08:35:30.508Z,962.37
2018-01-18T08:36:40.217Z,962.31
2018-01-18T08:37:49.930Z,962.32
2018-01-18T08:38:59.111Z,962.32
2018-01-18T08:40:09.088Z,962.35
2018-01-18T08:41:19.062Z,962.28
2018-01-18T08:42:28.800Z,962.25
2018-01-18T08:43:38.779Z,962.26
2018-01-18T08:44:48.751Z,962.26
2018-01-18T08:45:58.464Z,962.26
2018-01-18T08:47:08.440Z,962.29
2018-01-18T08:48:18.415Z,962.27
2018-01-18T08:49:28.392Z,962.27
2018-01-18T08:50:38.100Z,962.31
2018-01-18T08:51:47.816Z,962.34
2018-01-18T08:52:57.525Z,962.31
2018-01-18T08:54:07.236Z,962.34
2018-01-18T08:55:17.214Z,962.37
2018-01-18T08:56:27.193Z,962.35
2018-01-18T08:57:37.175Z,962.38
2018-01-18T08:58:46.890Z,962.35
2018-01-18T08:59:56.607Z,962.37
2018-01-18T09:01:06.614Z,962.36
2018-01-18T09:02:16.591Z,962.36
2018-01-18T09:03:26.299Z,962.36
2018-01-18T09:04:36.277Z,962.37
2018-01-18T09:05:46.255Z,962.35
2018-01-18T09:06:55.962Z,962.36
2018-01-18T09:08:06.574Z,962.35
2018-01-18T09:09:16.546Z,962.33
2018-01-18T09:10:26.528Z,962.31
2018-01-18T09:11:36.501Z,962.3
2018-01-18T09:12:46.483Z,962.28
2018-01-18T09:13:56.562Z,962.28
2018-01-18T09:15:06.272Z,962.26
2018-01-18T09:16:15.991Z,962.26
2018-01-18T09:17:25.968Z,962.25
2018-01-18T09:18:35.678Z,962.23
2018-01-18T09:19:45.130Z,962.18
2018-01-18T09:20:54.865Z,962.21
2018-01-18T09:22:04.844Z,962.19
2018-01-18T09:23:14.895Z,962.24
2018-01-18T09:24:24.604Z,962.23
2018-01-18T09:25:34.313Z,962.2
2018-01-18T09:26:44.024Z,962.27
2018-01-18T09:27:53.741Z,962.26
2018-01-18T09:29:03.241Z,962.28
2018-01-18T09:30:13.285Z,962.39
2018-01-18T09:31:23.371Z,962.42
2018-01-18T09:32:33.088Z,962.43
2018-01-18T09:33:43.110Z,962.48
2018-01-18T09:34:52.554Z,962.47
2018-01-18T09:36:02.266Z,962.46
2018-01-18T09:37:12.240Z,962.5
2018-01-18T09:38:22.216Z,962.46
2018-01-18T09:39:32.189Z,962.51
2018-01-18T09:40:42.266Z,962.47
2018-01-18T09:41:52.236Z,962.48
2018-01-18T09:43:01.731Z,962.49
2018-01-18T09:44:11.713Z,962.5
2018-01-18T09:45:21.434Z,962.49
2018-01-18T09:46:31.148Z,962.46
2018-01-18T09:47:40.858Z,962.5
2018-01-18T09:48:50.836Z,962.47
2018-01-18T09:50:00.550Z,962.48
2018-01-18T09:51:10.522Z,962.48
2018-01-18T09:52:20.229Z,962.49
2018-01-18T09:53:30.204Z,962.47
2018-01-18T09:54:39.962Z,962.5
2018-01-18T09:55:49.675Z,962.51
2018-01-18T09:56:59.121Z,962.47
2018-01-18T09:58:09.101Z,962.55
2018-01-18T09:59:18.812Z,962.56
2018-01-18T10:00:28.620Z,962.52
2018-01-18T10:01:38.606Z,962.53
2018-01-18T10:02:48.685Z,962.59
2018-01-18T10:03:57.868Z,962.59
2018-01-18T10:05:07.845Z,962.59
2018-01-18T10:06:17.883Z,962.63
2018-01-18T10:07:27.598Z,962.62
2018-01-18T10:08:37.092Z,962.65
2018-01-18T10:09:47.066Z,962.66
2018-01-18T10:10:56.774Z,962.68
2018-01-18T10:12:06.222Z,962.69
2018-01-18T10:13:16.211Z,962.67
2018-01-18T10:14:25.994Z,962.63
2018-01-18T10:15:35.809Z,962.65
2018-01-18T10:16:45.530Z,962.65
2018-01-18T10:17:55.239Z,962.67
2018-01-18T10:19:05.229Z,962.64
2018-01-18T10:20:14.940Z,962.65
2018-01-18T10:21:24.655Z,962.61
2018-01-18T10:22:34.376Z,962.6
2018-01-18T10:23:44.103Z,962.63
2018-01-18T10:24:53.287Z,962.65
2018-01-18T10:26:03.044Z,962.58
2018-01-18T10:27:12.495Z,962.64
2018-01-18T10:28:22.211Z,962.65
2018-01-18T10:29:31.427Z,962.6
2018-01-18T10:30:40.609Z,962.57
2018-01-18T10:31:50.587Z,962.59
2018-01-18T10:33:00.338Z,962.56
2018-01-18T10:34:09.794Z,962.59
2018-01-18T10:35:19.507Z,962.58
2018-01-18T10:36:28.957Z,962.61
2018-01-18T10:37:38.405Z,962.58
2018-01-18T10:38:48.120Z,962.55
2018-01-18T10:39:58.101Z,962.53
2018-01-18T10:41:07.817Z,962.51
2018-01-18T10:42:17.264Z,962.52
2018-01-18T10:43:26.982Z,962.55
2018-01-18T10:44:36.451Z,962.48
2018-01-18T10:45:46.358Z,962.53
2018-01-18T10:46:56.080Z,962.54
2018-01-18T10:48:06.064Z,962.53
2018-01-18T10:49:15.510Z,962.49
2018-01-18T10:50:24.697Z,962.48
2018-01-18T10:51:34.415Z,962.47
2018-01-18T10:52:43.873Z,962.44
2018-01-18T10:53:53.317Z,962.45
2018-01-18T10:55:03.297Z,962.41
2018-01-18T10:56:12.750Z,962.44
2018-01-18T10:57:22.197Z,962.47
2018-01-18T10:58:31.647Z,962.46
2018-01-18T10:59:41.374Z,962.42
2018-01-18T11:00:51.085Z,962.41
2018-01-18T11:02:00.022Z,962.45
2018-01-18T11:03:09.210Z,962.44
2018-01-18T11:04:18.128Z,962.48
2018-01-18T11:05:27.616Z,962.49
2018-01-18T11:06:37.063Z,962.48
2018-01-18T11:07:46.772Z,962.52
2018-01-18T11:08:56.812Z,962.53
2018-01-18T11:10:06.310Z,962.5
2018-01-18T11:11:15.760Z,962.51
2018-01-18T11:12:24.944Z,962.52
2018-01-18T11:13:34.394Z,962.53
2018-01-18T11:14:44.105Z,962.51
2018-01-18T11:15:53.819Z,962.51
2018-01-18T11:17:03.574Z,962.53
2018-01-18T11:18:13.553Z,962.54
2018-01-18T11:19:23.583Z,962.53
2018-01-18T11:20:33.566Z,962.55
2018-01-18T11:21:43.538Z,962.55
2018-01-18T11:22:53.516Z,962.55
2018-01-18T11:24:02.963Z,962.57
2018-01-18T11:25:12.950Z,962.58
2018-01-18T11:26:22.665Z,962.52
2018-01-18T11:27:32.906Z,962.52
2018-01-18T11:28:42.882Z,962.56
2018-01-18T11:29:52.594Z,962.51
2018-01-18T11:31:02.583Z,962.51
2018-01-18T11:32:12.558Z,962.54
2018-01-18T11:33:22.270Z,962.51
2018-01-18T11:34:31.990Z,962.5
2018-01-18T11:35:41.962Z,962.53
2018-01-18T11:36:51.684Z,962.52
2018-01-18T11:38:01.399Z,962.56
2018-01-18T11:39:10.845Z,962.55
2018-01-18T11:40:20.556Z,962.58
2018-01-18T11:41:30.267Z,962.57
2018-01-18T11:42:40.016Z,962.5
2018-01-18T11:43:49.741Z,962.56
2018-01-18T11:44:59.724Z,962.53
2018-01-18T11:46:09.703Z,962.53
2018-01-18T11:47:19.419Z,962.56
2018-01-18T11:48:29.128Z,962.57
2018-01-18T11:49:38.843Z,962.56
2018-01-18T11:50:48.555Z,962.59
2018-01-18T11:51:58.266Z,962.53
2018-01-18T11:53:07.989Z,962.56
2018-01-18T11:54:17.965Z,962.51
2018-01-18T11:55:27.672Z,962.53
2018-01-18T11:56:37.533Z,962.55
2018-01-18T11:57:47.504Z,962.49
2018-01-18T11:58:56.952Z,962.55
2018-01-18T12:00:06.404Z,962.51
2018-01-18T12:01:16.386Z,962.55
2018-01-18T12:02:26.477Z,962.57
2018-01-18T12:03:36.453Z,962.58
2018-01-18T12:04:46.427Z,962.67
2018-01-18T12:05:56.406Z,962.6
2018-01-18T12:07:05.852Z,962.6
2018-01-18T12:08:15.299Z,962.62
2018-01-18T12:09:25.011Z,962.65
2018-01-18T12:10:34.458Z,962.64
2018-01-18T12:11:44.169Z,962.64
2018-01-18T12:12:53.618Z,962.66
2018-01-18T12:14:03.608Z,962.68
2018-01-18T12:15:13.638Z,962.7
2018-01-18T12:16:23.348Z,962.68
2018-01-18T12:17:33.332Z,962.66
2018-01-18T12:18:43.308Z,962.65
2018-01-18T12:19:53.505Z,962.7
2018-01-18T12:21:02.955Z,962.73
2018-01-18T12:22:12.716Z,962.74
2018-01-18T12:23:22.696Z,962.71
2018-01-18T12:24:32.416Z,962.72
2018-01-18T12:25:42.389Z,962.68
2018-01-18T12:26:52.406Z,962.73
2018-01-18T12:28:02.382Z,962.72
2018-01-18T12:29:11.833Z,962.75
2018-01-18T12:30:21.807Z,962.76
2018-01-18T12:31:31.264Z,962.72
2018-01-18T12:32:40.982Z,962.74
2018-01-18T12:33:50.718Z,962.76
2018-01-18T12:35:00.165Z,962.74
2018-01-18T12:36:09.887Z,962.78
2018-01-18T12:37:19.597Z,962.75
2018-01-18T12:38:29.370Z,962.78
2018-01-18T12:39:38.816Z,962.78
2018-01-18T12:40:48.792Z,962.8
2018-01-18T12:41:58.510Z,962.84
2018-01-18T12:43:08.488Z,962.79
2018-01-18T12:44:18.203Z,962.77
2018-01-18T12:45:27.912Z,962.81
2018-01-18T12:46:37.901Z,962.84
2018-01-18T12:47:47.891Z,962.83
2018-01-18T12:48:57.372Z,962.9
2018-01-18T12:50:07.088Z,962.89
2018-01-18T12:51:16.797Z,962.85
2018-01-18T12:52:26.244Z,962.87
2018-01-18T12:53:35.956Z,962.85
2018-01-18T12:54:45.666Z,962.83
2018-01-18T12:55:54.854Z,962.88
2018-01-18T12:57:04.566Z,962.87
2018-01-18T12:58:14.280Z,962.84
2018-01-18T12:59:24.276Z,962.87
2018-01-18T13:00:33.723Z,962.9
2018-01-18T13:01:43.485Z,962.92
2018-01-18T13:02:53.468Z,962.93
2018-01-18T13:04:03.450Z,962.93
2018-01-18T13:05:13.164Z,962.93
2018-01-18T13:06:22.888Z,962.93
2018-01-18T13:07:32.647Z,962.89
2018-01-18T13:08:42.622Z,962.93
2018-01-18T13:09:52.610Z,962.93
2018-01-18T13:11:02.589Z,962.93
2018-01-18T13:12:12.958Z,962.92
2018-01-18T13:13:22.998Z,962.92
2018-01-18T13:14:32.980Z,962.92
2018-01-18T13:15:43.064Z,962.89
2018-01-18T13:16:52.774Z,962.95
2018-01-18T13:18:02.804Z,962.91
2018-01-18T13:19:12.516Z,962.97
2018-01-18T13:20:22.504Z,962.99
2018-01-18T13:21:32.483Z,962.99
2018-01-18T13:22:41.929Z,963.01
2018-01-18T13:23:51.908Z,962.98
2018-01-18T13:25:01.623Z,963.01
2018-01-18T13:26:11.338Z,962.99
2018-01-18T13:27:21.321Z,962.99
2018-01-18T13:28:31.304Z,963.02
2018-01-18T13:29:41.021Z,963.03
2018-01-18T13:30:50.734Z,963.03
2018-01-18T13:32:00.189Z,963.06
2018-01-18T13:33:09.900Z,963.04
2018-01-18T13:34:19.875Z,963.07
2018-01-18T13:35:29.850Z,963.05
2018-01-18T13:36:39.833Z,963.03
2018-01-18T13:37:49.546Z,963.04
2018-01-18T13:38:58.999Z,963.06
2018-01-18T13:40:08.975Z,963.12
2018-01-18T13:41:18.427Z,963.08
2018-01-18T13:42:28.408Z,963.07
2018-01-18T13:43:38.451Z,963.1
2018-01-18T13:44:48.168Z,963.13
2018-01-18T13:45:58.153Z,963.16
2018-01-18T13:47:07.865Z,963.16
2018-01-18T13:48:17.847Z,963.18
2018-01-18T13:49:27.824Z,963.17
2018-01-18T13:50:37.536Z,963.19
2018-01-18T13:51:47.516Z,963.22
2018-01-18T13:52:57.227Z,963.23
2018-01-18T13:54:07.207Z,963.23
2018-01-18T13:55:16.920Z,963.26
2018-01-18T13:56:26.990Z,963.24
2018-01-18T13:57:36.702Z,963.28
2018-01-18T13:58:46.775Z,963.26
2018-01-18T13:59:56.499Z,963.29
2018-01-18T14:01:06.256Z,963.24
2018-01-18T14:02:15.657Z,963.29
2018-01-18T14:03:25.366Z,963.29
2018-01-18T14:04:35.388Z,963.34
2018-01-18T14:05:45.368Z,963.38
2018-01-18T14:06:55.078Z,963.39
2018-01-18T14:08:04.529Z,963.35
2018-01-18T14:09:13.974Z,963.38
2018-01-18T14:10:23.425Z,963.37
2018-01-18T14:11:33.403Z,963.41
2018-01-18T14:12:43.415Z,963.43
2018-01-18T14:13:53.131Z,963.41
2018-01-18T14:15:02.863Z,963.44
2018-01-18T14:16:12.580Z,963.44
2018-01-18T14:17:22.300Z,963.44
2018-01-18T14:18:31.749Z,963.41
2018-01-18T14:19:41.721Z,963.38
2018-01-18T14:20:51.437Z,963.42
2018-01-18T14:22:00.938Z,963.42
2018-01-18T14:23:10.915Z,963.38
2018-01-18T14:24:20.106Z,963.38
2018-01-18T14:25:29.819Z,963.45
2018-01-18T14:26:39.528Z,963.41
2018-01-18T14:27:49.242Z,963.44
2018-01-18T14:28:58.960Z,963.44
2018-01-18T14:30:08.412Z,963.49
2018-01-18T14:31:18.388Z,963.48
2018-01-18T14:32:28.102Z,963.53
2018-01-18T14:33:38.182Z,963.49
2018-01-18T14:34:48.160Z,963.49
2018-01-18T14:35:58.208Z,963.47